sensor_id;sensor_type;location;lat;lon;timestamp;pressure;altitude;pressure_sealevel;temperature;humidity
61805;BME280;47725;47.912;7.356;2023-12-22T00:02:35;98541.63;;;14.30;52.57
61805;BME280;47725;47.912;7.356;2023-12-22T00:06:35;98539.22;;;14.25;52.77
61805;BME280;47725;47.912;7.356;2023-12-22T00:10:35;98532.87;;;14.19;53.14
61805;BME280;47725;47.912;7.356;2023-12-22T00:14:35;98526.67;;;14.12;53.58
61805;BME280;47725;47.912;7.356;2023-12-22T00:18:35;98524.47;;;14.05;53.71
61805;BME280;47725;47.912;7.356;2023-12-22T00:22:35;98523.10;;;14.00;53.66
61805;BME280;47725;47.912;7.356;2023-12-22T00:26:35;98519.19;;;13.98;53.38
61805;BME280;47725;47.912;7.356;2023-12-22T00:30:35;98519.65;;;13.95;53.60
61805;BME280;47725;47.912;7.356;2023-12-22T00:34:35;98525.09;;;13.92;53.57
61805;BME280;47725;47.912;7.356;2023-12-22T00:38:35;98529.02;;;13.92;53.22
61805;BME280;47725;47.912;7.356;2023-12-22T00:42:35;98533.23;;;13.92;52.47
61805;BME280;47725;47.912;7.356;2023-12-22T00:46:35;98540.15;;;13.91;52.17
61805;BME280;47725;47.912;7.356;2023-12-22T00:50:35;98541.06;;;13.92;50.25
61805;BME280;47725;47.912;7.356;2023-12-22T00:54:35;98539.48;;;13.95;50.86
61805;BME280;47725;47.912;7.356;2023-12-22T00:58:35;98541.62;;;13.97;50.38
61805;BME280;47725;47.912;7.356;2023-12-22T01:02:35;98541.67;;;14.01;50.72
61805;BME280;47725;47.912;7.356;2023-12-22T01:06:37;98542.36;;;14.04;50.13
61805;BME280;47725;47.912;7.356;2023-12-22T01:10:35;98540.17;;;14.06;49.93
61805;BME280;47725;47.912;7.356;2023-12-22T01:14:35;98541.97;;;14.08;49.02
61805;BME280;47725;47.912;7.356;2023-12-22T01:18:35;98543.82;;;14.10;48.84
61805;BME280;47725;47.912;7.356;2023-12-22T01:22:35;98551.03;;;14.13;48.23
61805;BME280;47725;47.912;7.356;2023-12-22T01:26:35;98555.72;;;14.15;48.57
61805;BME280;47725;47.912;7.356;2023-12-22T01:30:35;98558.64;;;14.17;48.73
61805;BME280;47725;47.912;7.356;2023-12-22T01:34:35;98561.52;;;14.19;49.06
61805;BME280;47725;47.912;7.356;2023-12-22T01:38:35;98570.48;;;14.20;49.03
61805;BME280;47725;47.912;7.356;2023-12-22T01:42:35;98571.15;;;14.19;49.48
61805;BME280;47725;47.912;7.356;2023-12-22T01:46:35;98570.94;;;14.17;49.73
61805;BME280;47725;47.912;7.356;2023-12-22T01:50:35;98574.37;;;14.17;49.76
61805;BME280;47725;47.912;7.356;2023-12-22T01:54:35;98579.41;;;14.16;49.90
61805;BME280;47725;47.912;7.356;2023-12-22T01:58:35;98586.41;;;14.15;50.25
61805;BME280;47725;47.912;7.356;2023-12-22T02:02:35;98594.72;;;14.14;50.35
61805;BME280;47725;47.912;7.356;2023-12-22T02:06:35;98600.59;;;14.14;50.24
61805;BME280;47725;47.912;7.356;2023-12-22T02:10:35;98598.40;;;14.13;50.20
61805;BME280;47725;47.912;7.356;2023-12-22T02:14:35;98594.17;;;14.12;50.53
61805;BME280;47725;47.912;7.356;2023-12-22T02:18:35;98589.71;;;14.11;50.31
61805;BME280;47725;47.912;7.356;2023-12-22T02:22:35;98592.31;;;14.10;50.67
61805;BME280;47725;47.912;7.356;2023-12-22T02:26:36;98597.28;;;14.07;50.82
61805;BME280;47725;47.912;7.356;2023-12-22T02:34:35;98612.36;;;14.03;50.72
61805;BME280;47725;47.912;7.356;2023-12-22T02:38:35;98623.72;;;13.99;51.14
61805;BME280;47725;47.912;7.356;2023-12-22T02:42:35;98629.55;;;13.96;51.18
61805;BME280;47725;47.912;7.356;2023-12-22T02:46:35;98630.97;;;13.91;51.27
61805;BME280;47725;47.912;7.356;2023-12-22T02:50:35;98633.37;;;13.88;50.87
61805;BME280;47725;47.912;7.356;2023-12-22T02:54:34;98630.69;;;13.86;51.14
61805;BME280;47725;47.912;7.356;2023-12-22T02:58:34;98633.15;;;13.85;51.01
61805;BME280;47725;47.912;7.356;2023-12-22T03:02:34;98638.95;;;13.84;50.65
61805;BME280;47725;47.912;7.356;2023-12-22T03:06:34;98641.64;;;13.81;50.82
61805;BME280;47725;47.912;7.356;2023-12-22T03:10:34;98645.15;;;13.79;50.53
61805;BME280;47725;47.912;7.356;2023-12-22T03:14:35;98646.95;;;13.75;50.83
61805;BME280;47725;47.912;7.356;2023-12-22T03:18:34;98646.01;;;13.73;50.56
61805;BME280;47725;47.912;7.356;2023-12-22T03:22:34;98645.97;;;13.71;50.81
61805;BME280;47725;47.912;7.356;2023-12-22T03:26:34;98645.33;;;13.71;51.07
61805;BME280;47725;47.912;7.356;2023-12-22T03:30:34;98645.89;;;13.69;51.19
61805;BME280;47725;47.912;7.356;2023-12-22T03:34:34;98647.41;;;13.67;51.32
61805;BME280;47725;47.912;7.356;2023-12-22T03:38:34;98650.54;;;13.66;51.40
61805;BME280;47725;47.912;7.356;2023-12-22T03:42:34;98658.48;;;13.66;51.45
61805;BME280;47725;47.912;7.356;2023-12-22T03:46:34;98666.69;;;13.65;51.44
61805;BME280;47725;47.912;7.356;2023-12-22T03:50:34;98671.23;;;13.63;51.86
61805;BME280;47725;47.912;7.356;2023-12-22T03:54:34;98676.33;;;13.59;52.23
61805;BME280;47725;47.912;7.356;2023-12-22T03:58:35;98682.64;;;13.55;52.29
61805;BME280;47725;47.912;7.356;2023-12-22T04:02:34;98683.95;;;13.50;52.33
61805;BME280;47725;47.912;7.356;2023-12-22T04:06:38;98682.97;;;13.46;52.38
61805;BME280;47725;47.912;7.356;2023-12-22T04:10:34;98684.01;;;13.44;52.30
61805;BME280;47725;47.912;7.356;2023-12-22T04:14:34;98686.67;;;13.43;52.02
61805;BME280;47725;47.912;7.356;2023-12-22T04:18:34;98688.46;;;13.40;52.15
61805;BME280;47725;47.912;7.356;2023-12-22T04:22:34;98687.77;;;13.37;52.25
61805;BME280;47725;47.912;7.356;2023-12-22T04:26:34;98688.65;;;13.34;52.46
61805;BME280;47725;47.912;7.356;2023-12-22T04:30:34;98687.53;;;13.32;52.47
61805;BME280;47725;47.912;7.356;2023-12-22T04:34:34;98686.24;;;13.31;52.41
61805;BME280;47725;47.912;7.356;2023-12-22T04:38:34;98688.45;;;13.30;52.62
61805;BME280;47725;47.912;7.356;2023-12-22T04:42:34;98690.92;;;13.28;52.50
61805;BME280;47725;47.912;7.356;2023-12-22T04:46:34;98693.25;;;13.26;52.60
61805;BME280;47725;47.912;7.356;2023-12-22T04:50:34;98698.25;;;13.23;52.58
61805;BME280;47725;47.912;7.356;2023-12-22T04:54:34;98702.06;;;13.22;52.03
61805;BME280;47725;47.912;7.356;2023-12-22T04:58:34;98705.50;;;13.18;52.17
61805;BME280;47725;47.912;7.356;2023-12-22T05:02:34;98707.59;;;13.16;52.34
61805;BME280;47725;47.912;7.356;2023-12-22T05:06:34;98709.40;;;13.15;52.19
61805;BME280;47725;47.912;7.356;2023-12-22T05:10:34;98713.53;;;13.13;52.12
61805;BME280;47725;47.912;7.356;2023-12-22T05:14:34;98719.11;;;13.11;52.22
61805;BME280;47725;47.912;7.356;2023-12-22T05:18:34;98725.92;;;13.10;52.18
61805;BME280;47725;47.912;7.356;2023-12-22T05:22:36;98730.56;;;13.09;52.24
61805;BME280;47725;47.912;7.356;2023-12-22T05:26:34;98737.23;;;13.07;52.89
61805;BME280;47725;47.912;7.356;2023-12-22T05:30:34;98744.29;;;13.04;53.50
61805;BME280;47725;47.912;7.356;2023-12-22T05:34:34;98751.12;;;13.01;53.91
61805;BME280;47725;47.912;7.356;2023-12-22T05:38:38;98757.85;;;12.98;53.88
61805;BME280;47725;47.912;7.356;2023-12-22T05:42:34;98763.42;;;12.96;53.99
61805;BME280;47725;47.912;7.356;2023-12-22T05:46:37;98769.14;;;12.95;53.99
61805;BME280;47725;47.912;7.356;2023-12-22T05:50:34;98773.68;;;12.94;54.23
61805;BME280;47725;47.912;7.356;2023-12-22T05:54:35;98775.53;;;12.93;54.07
61805;BME280;47725;47.912;7.356;2023-12-22T05:58:34;98776.62;;;12.91;54.31
61805;BME280;47725;47.912;7.356;2023-12-22T06:02:34;98777.92;;;12.89;54.21
61805;BME280;47725;47.912;7.356;2023-12-22T06:06:36;98780.98;;;12.87;54.48
61805;BME280;47725;47.912;7.356;2023-12-22T06:10:34;98782.08;;;12.85;54.18
61805;BME280;47725;47.912;7.356;2023-12-22T06:14:34;98782.36;;;12.84;54.24
61805;BME280;47725;47.912;7.356;2023-12-22T06:18:34;98782.15;;;12.82;54.10
61805;BME280;47725;47.912;7.356;2023-12-22T06:22:34;98784.08;;;12.79;53.79
61805;BME280;47725;47.912;7.356;2023-12-22T06:26:34;98787.18;;;12.76;53.56
61805;BME280;47725;47.912;7.356;2023-12-22T06:30:34;98791.46;;;12.73;53.65
61805;BME280;47725;47.912;7.356;2023-12-22T06:34:34;98795.81;;;12.71;53.64
61805;BME280;47725;47.912;7.356;2023-12-22T06:38:34;98801.64;;;12.69;54.08
61805;BME280;47725;47.912;7.356;2023-12-22T06:42:34;98810.17;;;12.67;54.06
61805;BME280;47725;47.912;7.356;2023-12-22T06:46:34;98815.80;;;12.65;54.54
61805;BME280;47725;47.912;7.356;2023-12-22T06:50:34;98821.17;;;12.64;54.38
61805;BME280;47725;47.912;7.356;2023-12-22T06:54:34;98823.83;;;12.61;54.64
61805;BME280;47725;47.912;7.356;2023-12-22T06:58:34;98824.25;;;12.58;54.63
61805;BME280;47725;47.912;7.356;2023-12-22T07:02:34;98823.22;;;12.54;54.86
61805;BME280;47725;47.912;7.356;2023-12-22T07:06:34;98824.13;;;12.51;55.21
61805;BME280;47725;47.912;7.356;2023-12-22T07:10:34;98826.56;;;12.49;55.30
61805;BME280;47725;47.912;7.356;2023-12-22T07:14:34;98830.11;;;12.47;55.37
61805;BME280;47725;47.912;7.356;2023-12-22T07:18:37;98835.30;;;12.46;55.32
61805;BME280;47725;47.912;7.356;2023-12-22T07:22:34;98838.86;;;12.45;55.93
61805;BME280;47725;47.912;7.356;2023-12-22T07:26:34;98841.75;;;12.42;55.84
61805;BME280;47725;47.912;7.356;2023-12-22T07:30:34;98844.47;;;12.41;55.94
61805;BME280;47725;47.912;7.356;2023-12-22T07:34:34;98848.13;;;12.40;55.65
61805;BME280;47725;47.912;7.356;2023-12-22T07:38:35;98851.89;;;12.38;55.80
61805;BME280;47725;47.912;7.356;2023-12-22T07:42:34;98854.97;;;12.37;55.71
61805;BME280;47725;47.912;7.356;2023-12-22T07:46:34;98857.39;;;12.36;55.81
61805;BME280;47725;47.912;7.356;2023-12-22T07:50:34;98858.46;;;12.36;55.48
61805;BME280;47725;47.912;7.356;2023-12-22T07:54:34;98863.28;;;12.36;55.27
61805;BME280;47725;47.912;7.356;2023-12-22T07:58:34;98866.96;;;12.37;55.31
61805;BME280;47725;47.912;7.356;2023-12-22T08:02:34;98872.52;;;12.38;55.20
61805;BME280;47725;47.912;7.356;2023-12-22T08:06:34;98876.26;;;12.39;55.51
61805;BME280;47725;47.912;7.356;2023-12-22T08:10:34;98882.42;;;12.39;55.79
61805;BME280;47725;47.912;7.356;2023-12-22T08:14:34;98888.23;;;12.41;55.84
61805;BME280;47725;47.912;7.356;2023-12-22T08:18:34;98893.17;;;12.43;56.07
61805;BME280;47725;47.912;7.356;2023-12-22T08:22:34;98896.61;;;12.44;56.21
61805;BME280;47725;47.912;7.356;2023-12-22T08:26:34;98899.61;;;12.45;56.66
61805;BME280;47725;47.912;7.356;2023-12-22T08:30:34;98901.62;;;12.46;56.75
61805;BME280;47725;47.912;7.356;2023-12-22T08:34:34;98902.53;;;12.46;56.76
61805;BME280;47725;47.912;7.356;2023-12-22T08:38:34;98905.62;;;12.47;56.58
61805;BME280;47725;47.912;7.356;2023-12-22T08:42:34;98909.89;;;12.49;56.37
61805;BME280;47725;47.912;7.356;2023-12-22T08:46:34;98910.33;;;12.52;56.11
61805;BME280;47725;47.912;7.356;2023-12-22T08:50:34;98909.98;;;12.55;55.88
61805;BME280;47725;47.912;7.356;2023-12-22T08:54:34;98910.02;;;12.57;55.72
61805;BME280;47725;47.912;7.356;2023-12-22T08:58:34;98912.28;;;12.59;55.55
61805;BME280;47725;47.912;7.356;2023-12-22T09:02:34;98918.53;;;12.63;55.09
61805;BME280;47725;47.912;7.356;2023-12-22T09:06:34;98925.50;;;12.65;55.32
61805;BME280;47725;47.912;7.356;2023-12-22T09:10:34;98928.45;;;12.66;55.33
61805;BME280;47725;47.912;7.356;2023-12-22T09:14:34;98924.76;;;12.67;55.29
61805;BME280;47725;47.912;7.356;2023-12-22T09:18:34;98922.41;;;12.67;55.46
61805;BME280;47725;47.912;7.356;2023-12-22T09:22:34;98922.63;;;12.68;55.38
61805;BME280;47725;47.912;7.356;2023-12-22T09:26:34;98922.35;;;12.70;55.40
61805;BME280;47725;47.912;7.356;2023-12-22T09:30:34;98922.54;;;12.71;55.46
61805;BME280;47725;47.912;7.356;2023-12-22T09:34:34;98921.19;;;12.72;55.65
61805;BME280;47725;47.912;7.356;2023-12-22T09:38:34;98918.58;;;12.73;55.81
61805;BME280;47725;47.912;7.356;2023-12-22T09:42:34;98917.72;;;12.73;55.96
61805;BME280;47725;47.912;7.356;2023-12-22T09:46:34;98917.91;;;12.75;56.14
61805;BME280;47725;47.912;7.356;2023-12-22T09:50:34;98919.04;;;12.75;56.22
61805;BME280;47725;47.912;7.356;2023-12-22T09:54:34;98920.78;;;12.75;56.76
61805;BME280;47725;47.912;7.356;2023-12-22T09:58:35;98921.32;;;12.75;56.78
61805;BME280;47725;47.912;7.356;2023-12-22T10:02:34;98918.69;;;12.77;56.63
61805;BME280;47725;47.912;7.356;2023-12-22T10:06:34;98914.86;;;12.80;56.75
61805;BME280;47725;47.912;7.356;2023-12-22T10:10:34;98912.66;;;12.82;57.04
61805;BME280;47725;47.912;7.356;2023-12-22T10:14:34;98908.56;;;12.83;57.14
61805;BME280;47725;47.912;7.356;2023-12-22T10:18:34;98903.80;;;12.83;57.27
61805;BME280;47725;47.912;7.356;2023-12-22T10:22:34;98902.10;;;12.83;57.41
61805;BME280;47725;47.912;7.356;2023-12-22T10:26:34;98898.61;;;12.83;57.67
61805;BME280;47725;47.912;7.356;2023-12-22T10:30:34;98894.83;;;12.83;57.81
61805;BME280;47725;47.912;7.356;2023-12-22T10:34:34;98886.84;;;12.83;57.77
61805;BME280;47725;47.912;7.356;2023-12-22T10:38:34;98882.78;;;12.82;58.29
61805;BME280;47725;47.912;7.356;2023-12-22T10:42:34;98877.38;;;12.83;58.19
61805;BME280;47725;47.912;7.356;2023-12-22T10:46:34;98868.61;;;12.84;58.42
61805;BME280;47725;47.912;7.356;2023-12-22T10:50:34;98861.16;;;12.85;58.49
61805;BME280;47725;47.912;7.356;2023-12-22T10:54:35;98849.41;;;12.86;58.77
61805;BME280;47725;47.912;7.356;2023-12-22T10:58:35;98838.61;;;12.87;59.04
61805;BME280;47725;47.912;7.356;2023-12-22T11:02:34;98828.49;;;12.88;59.23
61805;BME280;47725;47.912;7.356;2023-12-22T11:06:37;98820.33;;;12.90;58.91
61805;BME280;47725;47.912;7.356;2023-12-22T11:10:34;98811.49;;;12.96;58.67
61805;BME280;47725;47.912;7.356;2023-12-22T11:14:34;98802.89;;;13.03;58.51
61805;BME280;47725;47.912;7.356;2023-12-22T11:18:34;98795.72;;;13.05;59.05
61805;BME280;47725;47.912;7.356;2023-12-22T11:22:34;98791.24;;;13.09;59.01
61805;BME280;47725;47.912;7.356;2023-12-22T11:26:34;98786.60;;;13.14;58.97
61805;BME280;47725;47.912;7.356;2023-12-22T11:30:34;98780.98;;;13.19;58.82
61805;BME280;47725;47.912;7.356;2023-12-22T11:34:35;98773.61;;;13.23;58.82
61805;BME280;47725;47.912;7.356;2023-12-22T11:38:34;98769.76;;;13.26;58.95
61805;BME280;47725;47.912;7.356;2023-12-22T11:42:37;98765.42;;;13.29;59.05
61805;BME280;47725;47.912;7.356;2023-12-22T11:46:34;98759.60;;;13.29;59.56
61805;BME280;47725;47.912;7.356;2023-12-22T11:50:34;98754.65;;;13.31;59.54
61805;BME280;47725;47.912;7.356;2023-12-22T11:54:43;98750.20;;;13.33;59.32
61805;BME280;47725;47.912;7.356;2023-12-22T11:58:37;98746.60;;;13.34;59.78
61805;BME280;47725;47.912;7.356;2023-12-22T12:02:37;98742.43;;;13.34;59.86
61805;BME280;47725;47.912;7.356;2023-12-22T12:06:34;98739.28;;;13.35;59.79
61805;BME280;47725;47.912;7.356;2023-12-22T12:10:50;98736.57;;;13.35;59.78
61805;BME280;47725;47.912;7.356;2023-12-22T12:14:37;98735.15;;;13.36;59.77
61805;BME280;47725;47.912;7.356;2023-12-22T12:18:34;98731.89;;;13.38;59.76
61805;BME280;47725;47.912;7.356;2023-12-22T12:22:34;98728.34;;;13.39;60.03
61805;BME280;47725;47.912;7.356;2023-12-22T12:26:34;98725.06;;;13.43;59.87
61805;BME280;47725;47.912;7.356;2023-12-22T12:30:34;98720.29;;;13.47;59.78
61805;BME280;47725;47.912;7.356;2023-12-22T12:34:34;98711.99;;;13.52;59.57
61805;BME280;47725;47.912;7.356;2023-12-22T12:42:35;98702.97;;;13.61;59.49
61805;BME280;47725;47.912;7.356;2023-12-22T12:46:37;98701.79;;;13.65;59.50
61805;BME280;47725;47.912;7.356;2023-12-22T12:50:34;98700.42;;;13.69;59.49
61805;BME280;47725;47.912;7.356;2023-12-22T12:54:34;98700.17;;;13.70;59.91
61805;BME280;47725;47.912;7.356;2023-12-22T12:58:34;98701.32;;;13.71;59.97
61805;BME280;47725;47.912;7.356;2023-12-22T13:02:34;98701.58;;;13.72;60.27
61805;BME280;47725;47.912;7.356;2023-12-22T13:06:34;98700.42;;;13.72;60.19
61805;BME280;47725;47.912;7.356;2023-12-22T13:10:34;98698.32;;;13.73;60.37
61805;BME280;47725;47.912;7.356;2023-12-22T13:14:34;98698.46;;;13.75;60.05
61805;BME280;47725;47.912;7.356;2023-12-22T13:18:34;98698.00;;;13.77;60.13
61805;BME280;47725;47.912;7.356;2023-12-22T13:22:34;98696.26;;;13.79;60.18
61805;BME280;47725;47.912;7.356;2023-12-22T13:26:34;98694.58;;;13.79;60.05
61805;BME280;47725;47.912;7.356;2023-12-22T13:30:37;98694.33;;;13.79;60.23
61805;BME280;47725;47.912;7.356;2023-12-22T13:34:34;98693.84;;;13.79;60.30
61805;BME280;47725;47.912;7.356;2023-12-22T13:38:34;98695.96;;;13.79;60.32
61805;BME280;47725;47.912;7.356;2023-12-22T13:42:34;98699.65;;;13.79;60.20
61805;BME280;47725;47.912;7.356;2023-12-22T13:46:34;98702.33;;;13.79;60.47
61805;BME280;47725;47.912;7.356;2023-12-22T13:50:34;98702.67;;;13.80;60.36
61805;BME280;47725;47.912;7.356;2023-12-22T13:54:34;98700.01;;;13.81;60.30
61805;BME280;47725;47.912;7.356;2023-12-22T13:58:34;98696.32;;;13.81;60.54
61805;BME280;47725;47.912;7.356;2023-12-22T14:02:34;98693.94;;;13.81;60.36
61805;BME280;47725;47.912;7.356;2023-12-22T14:06:34;98691.63;;;13.83;60.07
61805;BME280;47725;47.912;7.356;2023-12-22T14:10:34;98693.27;;;13.84;60.25
61805;BME280;47725;47.912;7.356;2023-12-22T14:14:34;98694.56;;;13.85;60.23
61805;BME280;47725;47.912;7.356;2023-12-22T14:18:34;98696.17;;;13.86;60.00
61805;BME280;47725;47.912;7.356;2023-12-22T14:22:34;98700.95;;;13.86;60.10
61805;BME280;47725;47.912;7.356;2023-12-22T14:26:51;98705.56;;;13.88;59.91
61805;BME280;47725;47.912;7.356;2023-12-22T14:30:34;98711.30;;;13.91;59.83
61805;BME280;47725;47.912;7.356;2023-12-22T14:34:34;98714.77;;;13.92;59.89
61805;BME280;47725;47.912;7.356;2023-12-22T14:38:34;98717.72;;;13.93;59.74
61805;BME280;47725;47.912;7.356;2023-12-22T14:42:34;98720.79;;;13.95;59.51
61805;BME280;47725;47.912;7.356;2023-12-22T14:46:37;98725.02;;;13.96;59.61
61805;BME280;47725;47.912;7.356;2023-12-22T14:50:34;98729.81;;;13.98;59.11
61805;BME280;47725;47.912;7.356;2023-12-22T14:54:34;98735.44;;;14.00;59.30
61805;BME280;47725;47.912;7.356;2023-12-22T14:58:34;98741.02;;;14.02;59.20
61805;BME280;47725;47.912;7.356;2023-12-22T15:02:34;98749.08;;;14.03;59.25
61805;BME280;47725;47.912;7.356;2023-12-22T15:06:37;98757.20;;;14.03;59.27
61805;BME280;47725;47.912;7.356;2023-12-22T15:10:34;98764.47;;;14.01;59.67
61805;BME280;47725;47.912;7.356;2023-12-22T15:14:34;98770.10;;;14.00;59.61
61805;BME280;47725;47.912;7.356;2023-12-22T15:18:34;98773.16;;;13.99;59.67
61805;BME280;47725;47.912;7.356;2023-12-22T15:22:34;98778.34;;;13.97;59.88
61805;BME280;47725;47.912;7.356;2023-12-22T15:26:34;98783.53;;;13.94;60.14
61805;BME280;47725;47.912;7.356;2023-12-22T15:30:34;98789.31;;;13.92;60.10
61805;BME280;47725;47.912;7.356;2023-12-22T15:34:34;98794.84;;;13.91;59.95
61805;BME280;47725;47.912;7.356;2023-12-22T15:38:34;98798.89;;;13.92;59.77
61805;BME280;47725;47.912;7.356;2023-12-22T15:42:34;98800.62;;;13.93;59.37
61805;BME280;47725;47.912;7.356;2023-12-22T15:46:34;98801.93;;;13.93;59.47
61805;BME280;47725;47.912;7.356;2023-12-22T15:50:34;98804.91;;;13.93;59.69
61805;BME280;47725;47.912;7.356;2023-12-22T15:54:34;98806.19;;;13.91;59.85
61805;BME280;47725;47.912;7.356;2023-12-22T15:58:34;98807.17;;;13.89;59.77
61805;BME280;47725;47.912;7.356;2023-12-22T16:02:34;98808.36;;;13.88;59.67
61805;BME280;47725;47.912;7.356;2023-12-22T16:06:34;98809.08;;;13.88;59.76
61805;BME280;47725;47.912;7.356;2023-12-22T16:10:34;98807.97;;;13.88;59.65
61805;BME280;47725;47.912;7.356;2023-12-22T16:14:34;98806.03;;;13.86;59.89
61805;BME280;47725;47.912;7.356;2023-12-22T16:18:34;98807.65;;;13.85;59.96
61805;BME280;47725;47.912;7.356;2023-12-22T16:22:34;98815.16;;;13.84;59.89
61805;BME280;47725;47.912;7.356;2023-12-22T16:26:34;98822.52;;;13.83;59.81
61805;BME280;47725;47.912;7.356;2023-12-22T16:30:34;98830.20;;;13.82;60.04
61805;BME280;47725;47.912;7.356;2023-12-22T16:34:34;98835.69;;;13.80;60.22
61805;BME280;47725;47.912;7.356;2023-12-22T16:38:34;98837.70;;;13.78;60.15
61805;BME280;47725;47.912;7.356;2023-12-22T16:42:34;98840.45;;;13.78;60.15
61805;BME280;47725;47.912;7.356;2023-12-22T16:46:34;98841.41;;;13.77;60.08
61805;BME280;47725;47.912;7.356;2023-12-22T16:50:34;98843.56;;;13.78;59.74
61805;BME280;47725;47.912;7.356;2023-12-22T16:54:34;98848.11;;;13.77;59.90
61805;BME280;47725;47.912;7.356;2023-12-22T16:58:34;98853.42;;;13.77;58.98
61805;BME280;47725;47.912;7.356;2023-12-22T17:02:34;98859.53;;;13.77;59.60
61805;BME280;47725;47.912;7.356;2023-12-22T17:06:34;98865.69;;;13.79;59.39
61805;BME280;47725;47.912;7.356;2023-12-22T17:10:34;98873.27;;;13.79;59.39
61805;BME280;47725;47.912;7.356;2023-12-22T17:14:34;98881.22;;;13.79;59.34
61805;BME280;47725;47.912;7.356;2023-12-22T17:18:34;98888.50;;;13.80;59.05
61805;BME280;47725;47.912;7.356;2023-12-22T17:22:34;98893.41;;;13.80;58.73
61805;BME280;47725;47.912;7.356;2023-12-22T17:26:34;98895.95;;;13.80;58.63
61805;BME280;47725;47.912;7.356;2023-12-22T17:30:33;98901.00;;;13.80;58.50
61805;BME280;47725;47.912;7.356;2023-12-22T17:34:34;98905.03;;;13.81;58.13
61805;BME280;47725;47.912;7.356;2023-12-22T17:38:33;98911.15;;;13.83;57.72
61805;BME280;47725;47.912;7.356;2023-12-22T17:42:33;98918.11;;;13.85;57.24
61805;BME280;47725;47.912;7.356;2023-12-22T17:46:33;98922.25;;;13.86;56.88
61805;BME280;47725;47.912;7.356;2023-12-22T17:50:33;98928.52;;;13.86;57.28
61805;BME280;47725;47.912;7.356;2023-12-22T17:54:33;98933.29;;;13.87;57.27
61805;BME280;47725;47.912;7.356;2023-12-22T17:58:33;98937.11;;;13.88;57.12
61805;BME280;47725;47.912;7.356;2023-12-22T18:02:33;98942.49;;;13.89;57.16
61805;BME280;47725;47.912;7.356;2023-12-22T18:06:33;98947.34;;;13.89;57.14
61805;BME280;47725;47.912;7.356;2023-12-22T18:10:33;98953.59;;;13.89;57.19
61805;BME280;47725;47.912;7.356;2023-12-22T18:14:33;98961.16;;;13.88;57.46
61805;BME280;47725;47.912;7.356;2023-12-22T18:18:33;98965.57;;;13.85;57.67
61805;BME280;47725;47.912;7.356;2023-12-22T18:22:33;98968.50;;;13.83;57.81
61805;BME280;47725;47.912;7.356;2023-12-22T18:26:33;98973.75;;;13.82;57.81
61805;BME280;47725;47.912;7.356;2023-12-22T18:30:33;98979.35;;;13.80;58.00
61805;BME280;47725;47.912;7.356;2023-12-22T18:34:33;98981.42;;;13.76;58.37
61805;BME280;47725;47.912;7.356;2023-12-22T18:38:33;98983.95;;;13.73;58.41
61805;BME280;47725;47.912;7.356;2023-12-22T18:42:33;98988.19;;;13.71;58.20
61805;BME280;47725;47.912;7.356;2023-12-22T18:46:33;98995.98;;;13.69;58.19
61805;BME280;47725;47.912;7.356;2023-12-22T18:50:33;99003.80;;;13.67;58.18
61805;BME280;47725;47.912;7.356;2023-12-22T18:54:33;99011.03;;;13.67;58.23
61805;BME280;47725;47.912;7.356;2023-12-22T18:58:33;99018.06;;;13.66;58.17
61805;BME280;47725;47.912;7.356;2023-12-22T19:02:33;99022.85;;;13.64;58.30
61805;BME280;47725;47.912;7.356;2023-12-22T19:06:33;99028.08;;;13.61;58.52
61805;BME280;47725;47.912;7.356;2023-12-22T19:10:33;99033.24;;;13.58;58.56
61805;BME280;47725;47.912;7.356;2023-12-22T19:14:33;99040.00;;;13.58;58.45
61805;BME280;47725;47.912;7.356;2023-12-22T19:18:33;99048.78;;;13.55;58.67
61805;BME280;47725;47.912;7.356;2023-12-22T19:22:33;99057.64;;;13.51;59.03
61805;BME280;47725;47.912;7.356;2023-12-22T19:26:33;99066.82;;;13.47;59.04
61805;BME280;47725;47.912;7.356;2023-12-22T19:30:33;99075.14;;;13.44;59.03
61805;BME280;47725;47.912;7.356;2023-12-22T19:34:33;99082.15;;;13.41;58.98
61805;BME280;47725;47.912;7.356;2023-12-22T19:38:33;99088.55;;;13.38;58.97
61805;BME280;47725;47.912;7.356;2023-12-22T19:42:33;99093.75;;;13.37;58.92
61805;BME280;47725;47.912;7.356;2023-12-22T19:46:33;99100.67;;;13.37;58.66
61805;BME280;47725;47.912;7.356;2023-12-22T19:50:33;99106.83;;;13.38;58.44
61805;BME280;47725;47.912;7.356;2023-12-22T19:54:33;99112.55;;;13.38;58.40
61805;BME280;47725;47.912;7.356;2023-12-22T19:58:33;99119.02;;;13.37;58.49
61805;BME280;47725;47.912;7.356;2023-12-22T20:02:33;99124.88;;;13.35;58.60
61805;BME280;47725;47.912;7.356;2023-12-22T20:06:33;99130.05;;;13.32;58.63
61805;BME280;47725;47.912;7.356;2023-12-22T20:10:33;99136.99;;;13.30;58.53
61805;BME280;47725;47.912;7.356;2023-12-22T20:14:34;99144.05;;;13.30;58.26
61805;BME280;47725;47.912;7.356;2023-12-22T20:18:33;99150.42;;;13.29;58.34
61805;BME280;47725;47.912;7.356;2023-12-22T20:22:33;99158.15;;;13.29;58.09
61805;BME280;47725;47.912;7.356;2023-12-22T20:26:33;99165.05;;;13.31;57.70
61805;BME280;47725;47.912;7.356;2023-12-22T20:30:33;99170.00;;;13.33;57.82
61805;BME280;47725;47.912;7.356;2023-12-22T20:34:33;99173.97;;;13.33;57.78
61805;BME280;47725;47.912;7.356;2023-12-22T20:38:33;99177.45;;;13.30;58.14
61805;BME280;47725;47.912;7.356;2023-12-22T20:42:33;99179.66;;;13.27;58.09
61805;BME280;47725;47.912;7.356;2023-12-22T20:46:33;99181.45;;;13.24;58.13
61805;BME280;47725;47.912;7.356;2023-12-22T20:50:33;99183.72;;;13.21;58.05
61805;BME280;47725;47.912;7.356;2023-12-22T20:54:33;99185.96;;;13.19;58.10
61805;BME280;47725;47.912;7.356;2023-12-22T20:58:33;99186.61;;;13.15;58.24
61805;BME280;47725;47.912;7.356;2023-12-22T21:02:33;99187.67;;;13.12;58.18
61805;BME280;47725;47.912;7.356;2023-12-22T21:06:33;99188.93;;;13.10;58.12
61805;BME280;47725;47.912;7.356;2023-12-22T21:10:33;99187.81;;;13.07;58.22
61805;BME280;47725;47.912;7.356;2023-12-22T21:14:33;99188.08;;;13.05;57.88
61805;BME280;47725;47.912;7.356;2023-12-22T21:18:33;99188.94;;;13.04;57.87